DNAA/ABV METAR and TAF weather

Enter ICAO airport designator
Station Type Date Time Source
DNAA METAR 2019/06/17 12:00 UTC NOAA

DNAA 171200Z 15004KT 9999 BKN013 30/23 Q1015 NOSIG


Station Type Date Time Source
DNAA Decoded METAR 2019/06/17 12:00 UTC NOAA

Station name not available
Jun 17, 2019 - 08:00 AM EDT / 2019.06.17 1200 UTC
Wind: from the SSE (150 degrees) at 5 MPH (4 KT):0
Visibility: greater than 7 mile(s):0
Sky conditions: mostly cloudy
Temperature: 86 F (30 C)
Heat index: 93.4 F (34.1 C):1
Dew Point: 73 F (23 C)
Relative Humidity: 66%
Pressure (altimeter): 29.97 in. Hg (1015 hPa)
ob: DNAA 171200Z 15004KT 9999 BKN013 30/23 Q1015 NOSIG
cycle: 12

Station Type Date Time Source
DNAA TAF 2019/06/17 12:24 UTC NOAA

TAF TAF DNAA 170930Z 1712/1818 24010KT 9999
TEMPO 1715/1721 TS SCT013 FEW020CB
BECMG 1721/1723 12005KT FEW008

Example: see airport list